Time;durP1;ratioP1;P1;durP2;ratioP2;P2;SDS_P1;SDS_P2;PMS_P1;PMS_P2;Temp;Humidity;BMP_temperature;BMP_pressure;BME280_temperature;BME280_humidity;BME280_pressure;Samples;Min_cycle;Max_cycle;Signal;HPM_P1;HPM_P2
2022/06/04 00:00:51;;;;;;;3.15;2.85;;;;;;;-145.23;100.00;58621.06;5056352;28;20231;-51
2022/06/04 00:03:19;;;;;;;7.18;3.38;;;;;;;-145.23;100.00;58621.06;5046152;28;20784;-53
2022/06/04 00:05:48;;;;;;;3.58;2.97;;;;;;;-145.23;100.00;58621.06;5052231;28;20231;-53
2022/06/04 00:08:15;;;;;;;3.50;2.83;;;;;;;-145.23;100.00;58621.06;5053037;28;20245;-52
2022/06/04 00:16:15;;;;;;;3.03;2.63;;;;;;;-145.23;100.00;58621.06;5060160;28;20288;-52
2022/06/04 00:18:42;;;;;;;2.85;2.65;;;;;;;-145.23;100.00;58621.06;5062991;28;20239;-52
2022/06/04 00:21:09;;;;;;;2.90;2.60;;;;;;;-145.23;100.00;58621.06;5069280;28;20251;-51
2022/06/04 00:23:38;;;;;;;6.85;3.33;;;;;;;-145.23;100.00;58621.06;5064224;28;20223;-54
2022/06/04 00:26:08;;;;;;;3.80;3.15;;;;;;;-145.23;100.00;58621.06;5060410;28;20753;-52
2022/06/04 00:28:35;;;;;;;3.45;3.15;;;;;;;-145.23;100.00;58621.06;5062033;28;20234;-52
2022/06/04 00:31:02;;;;;;;5.63;3.58;;;;;;;-145.23;100.00;58621.06;5057791;28;20243;-53
2022/06/04 00:33:28;;;;;;;3.05;2.65;;;;;;;-145.23;100.00;58621.06;5058472;28;20246;-55
2022/06/04 00:35:57;;;;;;;2.47;2.30;;;;;;;-145.23;100.00;58621.06;5059232;28;20336;-53
2022/06/04 00:38:25;;;;;;;6.00;3.10;;;;;;;-145.23;100.00;58621.06;5048694;28;20237;-53
2022/06/04 00:40:57;;;;;;;3.97;2.83;;;;;;;-145.23;100.00;58621.06;5059590;28;20263;-55
2022/06/04 00:43:26;;;;;;;3.08;2.83;;;;;;;-145.23;100.00;58621.06;5059997;28;20231;-53
2022/06/04 00:46:37;;;;;;;3.22;2.92;;;;;;;-145.23;100.00;58621.06;5060743;28;20231;-54
2022/06/04 00:49:04;;;;;;;3.67;3.00;;;;;;;-145.23;100.00;58621.06;4963203;28;20246;-52
2022/06/04 00:51:30;;;;;;;3.20;2.90;;;;;;;-145.23;100.00;58621.06;5037481;28;20247;-51
2022/06/04 00:53:58;;;;;;;2.78;2.55;;;;;;;-145.23;100.00;58621.06;5060345;28;20322;-53
2022/06/04 00:56:31;;;;;;;3.13;2.55;;;;;;;-145.23;100.00;58621.06;5045214;28;20236;-52
2022/06/04 00:59:20;;;;;;;5.30;3.20;;;;;;;-145.23;100.00;58621.06;5054154;28;20239;-57
2022/06/04 01:01:55;;;;;;;2.50;2.30;;;;;;;-145.23;100.00;58621.06;5046791;28;20232;-51
2022/06/04 01:07:22;;;;;;;3.33;3.03;;;;;;;-145.23;100.00;58621.06;5057821;28;20243;-52
2022/06/04 01:10:00;;;;;;;2.72;2.47;;;;;;;-145.23;100.00;58621.06;5060201;28;20252;-50
2022/06/04 01:12:39;;;;;;;4.82;2.72;;;;;;;-145.23;100.00;58621.06;5055651;28;20249;-51
2022/06/04 01:15:15;;;;;;;3.15;2.72;;;;;;;-145.23;100.00;58621.06;5054434;28;20234;-51
2022/06/04 01:17:56;;;;;;;2.72;2.53;;;;;;;-145.23;100.00;58621.06;5056001;28;20318;-52
2022/06/04 01:20:31;;;;;;;3.38;3.05;;;;;;;-145.23;100.00;58621.06;5058069;28;20765;-51
2022/06/04 01:23:11;;;;;;;3.35;3.00;;;;;;;-145.23;100.00;58621.06;5055871;28;20223;-52
2022/06/04 01:25:48;;;;;;;5.40;2.88;;;;;;;-145.23;100.00;58621.06;5054738;28;20270;-52
2022/06/04 01:28:16;;;;;;;3.08;2.80;;;;;;;-145.23;100.00;58621.06;5057147;28;20239;-51
2022/06/04 01:30:45;;;;;;;3.65;2.90;;;;;;;-145.23;100.00;58621.06;5060826;28;20244;-50
2022/06/04 01:33:15;;;;;;;3.05;2.70;;;;;;;-145.23;100.00;58621.06;5055251;28;20219;-53
2022/06/04 01:35:46;;;;;;;3.45;3.10;;;;;;;-145.23;100.00;58621.06;5049193;28;20231;-54
2022/06/04 01:38:15;;;;;;;3.15;2.85;;;;;;;-145.23;100.00;58621.06;5053792;28;20237;-52
2022/06/04 01:43:32;;;;;;;3.10;2.80;;;;;;;-145.23;100.00;58621.06;5052903;28;20250;-53
2022/06/04 01:46:02;;;;;;;3.83;3.20;;;;;;;-145.23;100.00;58621.06;5060835;28;20365;-51
2022/06/04 01:48:30;;;;;;;3.28;2.97;;;;;;;-145.23;100.00;58621.06;5058319;28;20234;-53
2022/06/04 01:51:00;;;;;;;4.43;3.20;;;;;;;-145.23;100.00;58621.06;5051399;28;20895;-52
2022/06/04 01:53:31;;;;;;;3.63;3.20;;;;;;;-145.23;100.00;58621.06;5060510;28;20236;-52
2022/06/04 01:55:59;;;;;;;3.33;2.53;;;;;;;-145.23;100.00;58621.06;5048297;28;20239;-51
2022/06/04 01:58:31;;;;;;;2.80;2.55;;;;;;;-145.23;100.00;58621.06;5047847;28;20228;-52
2022/06/04 02:00:59;;;;;;;2.75;2.55;;;;;;;-145.23;100.00;58621.06;5058400;28;20234;-51
2022/06/04 02:03:30;;;;;;;6.57;2.72;;;;;;;-145.23;100.00;58621.06;5049437;28;20226;-53
2022/06/04 02:06:00;;;;;;;3.08;2.75;;;;;;;-145.23;100.00;58621.06;5052894;28;20231;-53
2022/06/04 02:08:29;;;;;;;2.75;2.55;;;;;;;-145.23;100.00;58621.06;5061002;28;20219;-50
2022/06/04 02:10:58;;;;;;;3.50;3.17;;;;;;;-145.23;100.00;58621.06;5053603;28;20235;-53
2022/06/04 02:13:25;;;;;;;3.30;2.95;;;;;;;-145.23;100.00;58621.06;5052867;28;20223;-52
2022/06/04 02:15:57;;;;;;;3.13;2.25;;;;;;;-145.23;100.00;58621.06;5060759;28;20314;-53
2022/06/04 02:18:24;;;;;;;2.88;2.47;;;;;;;-145.23;100.00;58621.06;5059436;28;20230;-51
2022/06/04 02:20:51;;;;;;;2.83;2.33;;;;;;;-145.23;100.00;58621.06;5057762;28;20602;-52
2022/06/04 02:23:18;;;;;;;3.13;2.83;;;;;;;-145.23;100.00;58621.06;5054858;28;20231;-52
2022/06/04 02:25:45;;;;;;;3.17;2.67;;;;;;;-145.23;100.00;58621.06;5062126;28;20234;-53
2022/06/04 02:28:12;;;;;;;3.92;2.45;;;;;;;-145.23;100.00;58621.06;5062396;28;20305;-52
2022/06/04 02:30:48;;;;;;;3.40;2.80;;;;;;;-145.23;100.00;58621.06;5048023;28;20289;-54
2022/06/04 02:33:21;;;;;;;3.10;2.55;;;;;;;-145.23;100.00;58621.06;5062305;28;20274;-52
2022/06/04 02:35:54;;;;;;;2.67;2.40;;;;;;;-145.23;100.00;58621.06;5057820;28;25098;-50
2022/06/04 02:38:26;;;;;;;3.80;2.75;;;;;;;-145.23;100.00;58621.06;5056932;28;20281;-52
2022/06/04 02:40:56;;;;;;;2.80;2.60;;;;;;;-145.23;100.00;58621.06;5054814;28;20262;-53
2022/06/04 02:43:30;;;;;;;2.85;2.40;;;;;;;-145.23;100.00;58621.06;5049313;28;20232;-52
2022/06/04 02:46:00;;;;;;;2.83;2.55;;;;;;;-145.23;100.00;58621.06;5054667;28;20228;-52
2022/06/04 02:48:34;;;;;;;3.95;3.08;;;;;;;-145.23;100.00;58621.06;5058390;28;20625;-51
2022/06/04 02:51:05;;;;;;;3.42;3.13;;;;;;;-145.23;100.00;58621.06;5058992;28;20216;-52
2022/06/04 02:53:33;;;;;;;4.78;2.67;;;;;;;-145.23;100.00;58621.06;5062660;28;20231;-51
2022/06/04 02:56:07;;;;;;;3.15;2.88;;;;;;;-145.23;100.00;58621.06;5051005;28;20231;-54
2022/06/04 02:58:35;;;;;;;2.53;2.33;;;;;;;-145.23;100.00;58621.06;5052256;28;20230;-51
2022/06/04 03:01:04;;;;;;;2.90;2.70;;;;;;;-145.23;100.00;58621.06;5054517;28;20235;-53
2022/06/04 03:03:32;;;;;;;4.10;3.13;;;;;;;-145.23;100.00;58621.06;5053160;28;20220;-52
2022/06/04 03:06:00;;;;;;;4.97;2.55;;;;;;;-145.23;100.00;58621.06;5054963;28;20231;-56
2022/06/04 03:08:27;;;;;;;3.60;2.65;;;;;;;-145.23;100.00;58621.06;5055579;28;20536;-53
2022/06/04 03:10:54;;;;;;;2.83;2.40;;;;;;;-145.23;100.00;58621.06;5052780;28;20253;-52
2022/06/04 03:13:21;;;;;;;3.67;3.17;;;;;;;-145.23;100.00;58621.06;5052315;28;20230;-53
2022/06/04 03:15:48;;;;;;;2.70;2.50;;;;;;;-145.23;100.00;58621.06;5056362;28;20231;-53
2022/06/04 03:18:15;;;;;;;2.53;2.35;;;;;;;-145.23;100.00;58621.06;5051113;28;20246;-53
2022/06/04 03:20:43;;;;;;;2.92;2.22;;;;;;;-145.23;100.00;58621.06;5049039;28;20228;-52
2022/06/04 03:23:10;;;;;;;4.43;2.83;;;;;;;-145.23;100.00;58621.06;5060671;28;20274;-52
2022/06/04 03:25:38;;;;;;;2.58;2.20;;;;;;;-145.23;100.00;58621.06;5054530;28;20238;-54
2022/06/04 03:28:06;;;;;;;3.40;3.00;;;;;;;-145.23;100.00;58621.06;5062279;28;20663;-52
2022/06/04 03:30:34;;;;;;;3.33;2.42;;;;;;;-145.23;100.00;58621.06;5054631;28;20721;-53
2022/06/04 03:33:01;;;;;;;3.22;2.85;;;;;;;-145.23;100.00;58621.06;5058482;28;20230;-51
2022/06/04 03:35:28;;;;;;;5.28;2.20;;;;;;;-145.23;100.00;58621.06;5055144;28;20228;-51
2022/06/04 03:37:56;;;;;;;4.10;2.40;;;;;;;-145.23;100.00;58621.06;5054466;28;20276;-53
2022/06/04 03:40:22;;;;;;;3.08;2.45;;;;;;;-145.23;100.00;58621.06;5052152;28;20725;-53
2022/06/04 03:42:49;;;;;;;5.75;3.40;;;;;;;-145.23;100.00;58621.06;5062967;28;20242;-52
2022/06/04 03:45:16;;;;;;;3.70;2.35;;;;;;;-145.23;100.00;58621.06;5054739;28;20243;-52
2022/06/04 03:47:43;;;;;;;2.70;2.33;;;;;;;-145.23;100.00;58621.06;5059180;28;20226;-53
2022/06/04 03:50:12;;;;;;;3.53;2.20;;;;;;;-145.23;100.00;58621.06;5055604;28;20227;-53
2022/06/04 03:52:38;;;;;;;2.85;2.58;;;;;;;-145.23;100.00;58621.06;5055352;28;20321;-51
2022/06/04 03:55:09;;;;;;;5.20;2.63;;;;;;;-145.23;100.00;58621.06;5047765;28;20414;-51
2022/06/04 03:57:41;;;;;;;2.90;2.60;;;;;;;-145.23;100.00;58621.06;5052095;28;20227;-51
2022/06/04 04:00:15;;;;;;;2.60;2.40;;;;;;;-145.23;100.00;58621.06;5065583;28;20227;-52
2022/06/04 04:02:42;;;;;;;2.83;2.60;;;;;;;-145.23;100.00;58621.06;5058207;28;20247;-52
2022/06/04 04:05:10;;;;;;;3.80;2.70;;;;;;;-145.23;100.00;58621.06;5063674;28;20719;-52
2022/06/04 04:07:37;;;;;;;2.13;2.03;;;;;;;-145.23;100.00;58621.06;5056667;28;20251;-52
2022/06/04 04:10:04;;;;;;;3.08;2.88;;;;;;;-145.23;100.00;58621.06;5056145;28;20311;-53
2022/06/04 04:12:32;;;;;;;2.72;2.50;;;;;;;-145.23;100.00;58621.06;5060194;28;20230;-52
2022/06/04 04:14:59;;;;;;;5.47;2.72;;;;;;;-145.23;100.00;58621.06;5050684;28;20311;-52
2022/06/04 04:17:26;;;;;;;3.25;2.80;;;;;;;-145.23;100.00;58621.06;5054061;28;20231;-51
2022/06/04 04:19:52;;;;;;;3.58;2.78;;;;;;;-145.23;100.00;58621.06;5061205;28;20312;-52
2022/06/04 04:22:20;;;;;;;2.67;2.47;;;;;;;-145.23;100.00;58621.06;5056119;28;20246;-53
2022/06/04 04:24:46;;;;;;;3.28;2.53;;;;;;;-145.23;100.00;58621.06;5058670;28;20231;-51
2022/06/04 04:27:14;;;;;;;3.08;2.72;;;;;;;-145.23;100.00;58621.06;5063519;28;20231;-52
2022/06/04 04:29:42;;;;;;;2.65;2.45;;;;;;;-145.23;100.00;58621.06;5053724;28;20235;-53
2022/06/04 04:32:09;;;;;;;2.17;2.08;;;;;;;-145.23;100.00;58621.06;5053057;28;20223;-51
2022/06/04 04:34:36;;;;;;;2.40;2.20;;;;;;;-145.23;100.00;58621.06;5055456;28;20327;-51
2022/06/04 04:37:03;;;;;;;3.75;2.90;;;;;;;-145.23;100.00;58621.06;5051323;28;20241;-54
2022/06/04 04:39:30;;;;;;;2.40;2.20;;;;;;;-145.23;100.00;58621.06;5063161;28;20235;-52
2022/06/04 04:41:56;;;;;;;3.97;2.60;;;;;;;-145.23;100.00;58621.06;5058124;28;20263;-53
2022/06/04 04:44:23;;;;;;;2.78;2.58;;;;;;;-145.23;100.00;58621.06;5056421;28;20314;-53
2022/06/04 04:46:51;;;;;;;2.88;2.63;;;;;;;-145.23;100.00;58621.06;5054430;28;20765;-52
2022/06/04 04:49:18;;;;;;;2.47;2.28;;;;;;;-145.23;100.00;58621.06;5058970;28;20235;-53
2022/06/04 04:51:45;;;;;;;2.90;2.70;;;;;;;-145.23;100.00;58621.06;5063837;28;20239;-51
2022/06/04 04:54:11;;;;;;;2.78;2.55;;;;;;;-145.23;100.00;58621.06;5056573;28;20269;-53
2022/06/04 04:56:39;;;;;;;2.42;2.22;;;;;;;-145.23;100.00;58621.06;5061403;28;20314;-51
2022/06/04 04:59:05;;;;;;;2.75;2.58;;;;;;;-145.23;100.00;58621.06;5052727;28;20251;-53
2022/06/04 05:01:33;;;;;;;2.72;2.53;;;;;;;-145.23;100.00;58621.06;5061188;28;20226;-52
2022/06/04 05:04:01;;;;;;;3.10;2.72;;;;;;;-145.23;100.00;58621.06;5058518;28;20234;-55
2022/06/04 05:06:27;;;;;;;3.05;2.70;;;;;;;-145.23;100.00;58621.06;5066479;28;20231;-52
2022/06/04 05:08:54;;;;;;;4.20;2.92;;;;;;;-145.23;100.00;58621.06;5059407;28;20305;-53
2022/06/04 05:11:23;;;;;;;4.40;2.80;;;;;;;-145.23;100.00;58621.06;5057212;28;20235;-50
2022/06/04 05:13:50;;;;;;;3.13;2.40;;;;;;;-145.23;100.00;58621.06;5052314;28;20327;-51
2022/06/04 05:16:17;;;;;;;3.88;2.47;;;;;;;-145.23;100.00;58621.06;5059681;28;20324;-53
2022/06/04 05:18:43;;;;;;;2.35;2.15;;;;;;;-145.23;100.00;58621.06;5057526;28;20665;-51
2022/06/04 05:21:13;;;;;;;3.78;2.40;;;;;;;-145.23;100.00;58621.06;5053517;28;20224;-53
2022/06/04 05:23:39;;;;;;;4.75;2.45;;;;;;;-145.23;100.00;58621.06;5059660;28;20338;-52
2022/06/04 05:26:06;;;;;;;3.83;2.85;;;;;;;-145.23;100.00;58621.06;5058959;28;20326;-53
2022/06/04 05:28:33;;;;;;;2.45;2.25;;;;;;;-145.23;100.00;58621.06;5056370;28;20243;-51
2022/06/04 05:30:59;;;;;;;3.20;2.58;;;;;;;-145.23;100.00;58621.06;5064494;28;20318;-50
2022/06/04 05:33:26;;;;;;;2.95;2.75;;;;;;;-145.23;100.00;58621.06;5056006;28;20238;-52
2022/06/04 05:35:53;;;;;;;2.70;2.40;;;;;;;-145.23;100.00;58621.06;5059920;28;20235;-51
2022/06/04 05:38:21;;;;;;;2.50;2.30;;;;;;;-145.23;100.00;58621.06;5056717;28;20239;-52
2022/06/04 05:40:48;;;;;;;2.70;2.50;;;;;;;-145.23;100.00;58621.06;5061881;28;20235;-50
2022/06/04 05:43:15;;;;;;;2.67;2.45;;;;;;;-145.23;100.00;58621.06;5052187;28;20236;-57
2022/06/04 05:45:41;;;;;;;3.55;2.55;;;;;;;-145.23;100.00;58621.06;5054212;28;20242;-52
2022/06/04 05:48:09;;;;;;;2.63;2.42;;;;;;;-145.23;100.00;58621.06;5057288;28;20226;-53
2022/06/04 05:50:36;;;;;;;2.00;1.90;;;;;;;-145.23;100.00;58621.06;5053162;28;20246;-52
2022/06/04 05:53:03;;;;;;;3.60;2.88;;;;;;;-145.23;100.00;58621.06;5057115;28;20405;-52
2022/06/04 05:55:31;;;;;;;2.70;2.42;;;;;;;-145.23;100.00;58621.06;5062405;28;20235;-52
2022/06/04 05:57:58;;;;;;;4.30;2.75;;;;;;;-145.23;100.00;58621.06;5062597;28;20258;-52
2022/06/04 06:00:24;;;;;;;3.38;2.42;;;;;;;-145.23;100.00;58621.06;5056904;28;20646;-53
2022/06/04 06:02:51;;;;;;;3.13;2.65;;;;;;;-145.23;100.00;58621.06;5056817;28;20243;-53
2022/06/04 06:05:18;;;;;;;2.50;2.30;;;;;;;-145.23;100.00;58621.06;5054258;28;20260;-51
2022/06/04 06:07:44;;;;;;;2.65;2.42;;;;;;;-145.23;100.00;58621.06;5054263;28;20258;-53
2022/06/04 06:10:11;;;;;;;3.95;2.60;;;;;;;-145.23;100.00;58621.06;5061343;28;20713;-52
2022/06/04 06:12:39;;;;;;;3.35;2.70;;;;;;;-145.23;100.00;58621.06;5053024;28;20235;-52
2022/06/04 06:15:09;;;;;;;5.63;2.72;;;;;;;-145.23;100.00;58621.06;5059219;28;20231;-52
2022/06/04 06:17:36;;;;;;;4.38;2.35;;;;;;;-145.23;100.00;58621.06;5048961;28;20243;-52
2022/06/04 06:20:04;;;;;;;2.95;2.60;;;;;;;-145.23;100.00;58621.06;5051864;28;20237;-51
2022/06/04 06:22:31;;;;;;;2.35;2.15;;;;;;;-145.23;100.00;58621.06;5051544;28;20232;-54
2022/06/04 06:24:58;;;;;;;2.58;2.38;;;;;;;-145.23;100.00;58621.06;5056049;28;20275;-52
2022/06/04 06:27:25;;;;;;;2.72;2.53;;;;;;;-145.23;100.00;58621.06;5048837;28;20649;-52
2022/06/04 06:29:53;;;;;;;2.63;2.22;;;;;;;-145.23;100.00;58621.06;5060041;28;20243;-53
2022/06/04 06:32:20;;;;;;;1.92;1.83;;;;;;;-145.23;100.00;58621.06;5053640;28;20322;-52
2022/06/04 06:34:46;;;;;;;4.55;2.65;;;;;;;-145.23;100.00;58621.06;5063435;28;20227;-52
2022/06/04 06:37:13;;;;;;;3.33;2.95;;;;;;;-145.23;100.00;58621.06;5050568;28;20246;-51
2022/06/04 06:39:39;;;;;;;3.42;2.17;;;;;;;-145.23;100.00;58621.06;5054927;28;20231;-52
2022/06/04 06:42:06;;;;;;;3.10;2.50;;;;;;;-145.23;100.00;58621.06;5056280;28;20228;-53
2022/06/04 06:44:33;;;;;;;4.10;2.80;;;;;;;-145.23;100.00;58621.06;5057225;28;20235;-50
2022/06/04 06:47:01;;;;;;;2.53;2.10;;;;;;;-145.23;100.00;58621.06;5056206;28;20223;-52
2022/06/04 06:49:30;;;;;;;3.42;1.95;;;;;;;-145.23;100.00;58621.06;5052574;28;20254;-54
2022/06/04 06:51:58;;;;;;;3.35;2.55;;;;;;;-145.23;100.00;58621.06;5060861;28;20216;-51
2022/06/04 06:54:27;;;;;;;2.72;2.40;;;;;;;-145.23;100.00;58621.06;5057983;28;20254;-51
2022/06/04 06:56:54;;;;;;;2.72;2.50;;;;;;;-145.23;100.00;58621.06;5052369;28;20239;-51
2022/06/04 06:59:21;;;;;;;2.75;2.03;;;;;;;-145.23;100.00;58621.06;5056388;28;20231;-52
2022/06/04 07:01:48;;;;;;;2.85;2.60;;;;;;;-145.23;100.00;58621.06;5061315;28;20283;-51
2022/06/04 07:04:17;;;;;;;3.20;2.28;;;;;;;-145.23;100.00;58621.06;5051472;28;20242;-52
2022/06/04 07:06:46;;;;;;;2.90;2.30;;;;;;;-145.23;100.00;58621.06;5051763;28;20232;-51
2022/06/04 07:09:17;;;;;;;2.15;1.83;;;;;;;-145.23;100.00;58621.06;5055856;28;20246;-51
2022/06/04 07:11:43;;;;;;;3.72;1.95;;;;;;;-145.23;100.00;58621.06;5051897;28;20280;-51
2022/06/04 07:14:10;;;;;;;3.15;2.60;;;;;;;-145.23;100.00;58621.06;5056820;28;20707;-49
2022/06/04 07:16:37;;;;;;;2.60;2.40;;;;;;;-145.23;100.00;58621.06;5057294;28;20235;-51
2022/06/04 07:19:05;;;;;;;2.78;2.28;;;;;;;-145.23;100.00;58621.06;5050672;28;20732;-52
2022/06/04 07:21:33;;;;;;;2.33;2.08;;;;;;;-145.23;100.00;58621.06;5053618;28;20790;-55
2022/06/04 07:24:01;;;;;;;1.98;1.77;;;;;;;-145.23;100.00;58621.06;5049884;28;20224;-52
2022/06/04 07:26:28;;;;;;;2.15;2.00;;;;;;;-145.23;100.00;58621.06;5053841;28;20721;-57
2022/06/04 07:28:55;;;;;;;3.03;1.80;;;;;;;-145.23;100.00;58621.06;5054642;28;20314;-51
2022/06/04 07:31:22;;;;;;;2.35;1.33;;;;;;;-145.23;100.00;58621.06;5049380;28;20245;-51
2022/06/04 07:33:50;;;;;;;1.95;1.73;;;;;;;-145.23;100.00;58621.06;5051293;28;20709;-52
2022/06/04 07:36:19;;;;;;;2.83;2.13;;;;;;;-145.23;100.00;58621.06;5059404;28;20841;-51
2022/06/04 07:38:48;;;;;;;2.63;1.90;;;;;;;-145.23;100.00;58621.06;5055416;28;20239;-53
2022/06/04 07:41:18;;;;;;;2.42;1.77;;;;;;;-145.23;100.00;58621.06;5062620;28;20235;-51
2022/06/04 07:43:45;;;;;;;3.55;2.40;;;;;;;-145.23;100.00;58621.06;5050910;28;20706;-52
2022/06/04 07:46:11;;;;;;;2.78;2.13;;;;;;;-145.23;100.00;58621.06;5063220;28;20289;-52
2022/06/04 07:48:38;;;;;;;2.72;2.30;;;;;;;-145.23;100.00;58621.06;5058265;28;20616;-52
2022/06/04 07:51:05;;;;;;;1.95;1.85;;;;;;;-145.23;100.00;58621.06;5059349;28;20319;-53
2022/06/04 07:53:32;;;;;;;2.40;2.03;;;;;;;-145.23;100.00;58621.06;5054938;28;20236;-53
2022/06/04 07:56:05;;;;;;;1.95;1.85;;;;;;;-145.23;100.00;58621.06;5066152;28;20234;-52
2022/06/04 07:58:32;;;;;;;2.15;1.88;;;;;;;-145.23;100.00;58621.06;5061506;28;20238;-57
2022/06/04 08:01:00;;;;;;;1.88;1.77;;;;;;;-145.23;100.00;58621.06;5070910;28;20227;-52
2022/06/04 08:03:26;;;;;;;4.32;2.70;;;;;;;-145.23;100.00;58621.06;5067406;28;20220;-53
2022/06/04 08:05:53;;;;;;;5.20;2.10;;;;;;;-145.23;100.00;58621.06;5063361;28;20227;-51
2022/06/04 08:08:20;;;;;;;1.83;1.73;;;;;;;-145.23;100.00;58621.06;5062327;28;20238;-53
2022/06/04 08:10:47;;;;;;;2.63;2.20;;;;;;;-145.23;100.00;58621.06;5066712;28;20227;-54
2022/06/04 08:13:16;;;;;;;2.17;1.60;;;;;;;-145.23;100.00;58621.06;5061859;28;20293;-52
2022/06/04 08:15:42;;;;;;;2.28;1.77;;;;;;;-145.23;100.00;58621.06;5063023;28;20235;-51
2022/06/04 08:18:10;;;;;;;2.63;2.42;;;;;;;-145.23;100.00;58621.06;5055996;28;20258;-52
2022/06/04 08:20:41;;;;;;;2.55;2.35;;;;;;;-145.23;100.00;58621.06;5066915;28;20266;-52
2022/06/04 08:23:07;;;;;;;2.88;2.60;;;;;;;-145.23;100.00;58621.06;5057353;28;20227;-52
2022/06/04 08:25:38;;;;;;;2.75;2.15;;;;;;;-145.23;100.00;58621.06;5060058;28;20239;-53
2022/06/04 08:28:05;;;;;;;2.40;2.20;;;;;;;-145.23;100.00;58621.06;5057180;28;20733;-53
2022/06/04 08:30:34;;;;;;;1.80;1.70;;;;;;;-145.23;100.00;58621.06;5062079;28;20235;-52
2022/06/04 08:33:00;;;;;;;2.38;1.70;;;;;;;-145.23;100.00;58621.06;5058262;28;20240;-53
2022/06/04 08:35:27;;;;;;;1.92;1.70;;;;;;;-145.23;100.00;58621.06;5063388;28;20223;-56
2022/06/04 08:37:54;;;;;;;2.72;1.48;;;;;;;-145.23;100.00;58621.06;5066007;28;20242;-58
2022/06/04 08:40:27;;;;;;;3.95;1.80;;;;;;;-145.23;100.00;58621.06;5063694;28;20239;-52
2022/06/04 08:43:07;;;;;;;3.85;1.52;;;;;;;-145.23;100.00;58621.06;5066595;28;20291;-52
2022/06/04 08:45:37;;;;;;;2.47;1.48;;;;;;;-145.23;100.00;58621.06;5063004;28;20258;-53
2022/06/04 08:48:04;;;;;;;2.20;1.95;;;;;;;-145.23;100.00;58621.06;5062144;28;20864;-53
2022/06/04 08:50:35;;;;;;;2.22;1.75;;;;;;;-145.23;100.00;58621.06;5063074;28;20223;-55
2022/06/04 08:53:04;;;;;;;2.22;1.90;;;;;;;-145.23;100.00;58621.06;5057671;28;20668;-52
2022/06/04 08:58:36;;;;;;;9.63;2.22;;;;;;;-145.23;100.00;58621.06;5058392;28;20238;-53
2022/06/04 09:01:10;;;;;;;1.73;1.63;;;;;;;-145.23;100.00;58621.06;5055785;28;20231;-51
2022/06/04 09:03:46;;;;;;;3.78;1.73;;;;;;;-145.23;100.00;58621.06;5058023;28;20258;-50
2022/06/04 09:06:22;;;;;;;2.15;1.95;;;;;;;-145.23;100.00;58621.06;5056663;28;20296;-51
2022/06/04 09:08:53;;;;;;;1.55;1.45;;;;;;;-145.23;100.00;58621.06;5057684;28;20241;-54
2022/06/04 09:11:24;;;;;;;2.77;2.10;;;;;;;-145.23;100.00;58621.06;5062919;28;20433;-51
2022/06/04 09:14:08;;;;;;;1.70;1.60;;;;;;;-145.23;100.00;58621.06;5064599;28;20996;-52
2022/06/04 09:16:39;;;;;;;3.53;1.80;;;;;;;-145.23;100.00;58621.06;5059541;28;20231;-51
2022/06/04 09:19:11;;;;;;;1.85;1.75;;;;;;;-145.23;100.00;58621.06;5061370;28;20239;-51
2022/06/04 09:21:39;;;;;;;2.33;2.13;;;;;;;-145.23;100.00;58621.06;5053510;28;20220;-52
2022/06/04 09:24:06;;;;;;;3.80;2.20;;;;;;;-145.23;100.00;58621.06;5056017;28;20231;-56
2022/06/04 09:26:36;;;;;;;3.88;2.53;;;;;;;-145.23;100.00;58621.06;5065974;28;20231;-53
2022/06/04 09:29:23;;;;;;;2.10;1.88;;;;;;;-145.23;100.00;58621.06;5062661;28;20235;-53
2022/06/04 09:31:58;;;;;;;2.00;1.90;;;;;;;-145.23;100.00;58621.06;5053067;28;20394;-52
2022/06/04 09:34:28;;;;;;;3.08;1.73;;;;;;;-145.23;100.00;58621.06;5054350;28;20238;-54
2022/06/04 09:36:56;;;;;;;1.60;1.40;;;;;;;-145.23;100.00;58621.06;5057966;28;20231;-53
2022/06/04 09:39:24;;;;;;;4.25;2.22;;;;;;;-145.23;100.00;58621.06;5065528;28;20243;-52
2022/06/04 09:41:54;;;;;;;2.55;2.35;;;;;;;-145.23;100.00;58621.06;5066735;28;20231;-51
2022/06/04 09:44:21;;;;;;;2.45;1.95;;;;;;;-145.23;100.00;58621.06;5059447;28;20259;-54
2022/06/04 09:46:51;;;;;;;3.40;2.28;;;;;;;-145.23;100.00;58621.06;5073864;28;20612;-53
2022/06/04 09:49:38;;;;;;;2.67;2.30;;;;;;;-145.23;100.00;58621.06;5053150;28;20239;-52
2022/06/04 09:52:14;;;;;;;3.55;2.42;;;;;;;-145.23;100.00;58621.06;5064070;28;20241;-52
2022/06/04 09:54:42;;;;;;;1.88;1.77;;;;;;;-145.23;100.00;58621.06;5056893;28;20247;-52
2022/06/04 09:57:25;;;;;;;3.33;2.08;;;;;;;-145.23;100.00;58621.06;5059079;28;20247;-53
2022/06/04 09:59:54;;;;;;;2.47;2.13;;;;;;;-145.23;100.00;58621.06;5073631;28;20263;-51
2022/06/04 10:02:21;;;;;;;2.10;2.00;;;;;;;-145.23;100.00;58621.06;5071701;28;20223;-52
2022/06/04 10:04:52;;;;;;;1.65;1.55;;;;;;;-145.23;100.00;58621.06;5070019;28;20231;-52
2022/06/04 10:07:28;;;;;;;1.67;1.58;;;;;;;-145.23;100.00;58621.06;5064385;28;20841;-52
2022/06/04 10:09:57;;;;;;;3.10;1.92;;;;;;;-145.23;100.00;58621.06;5062645;28;20325;-53
2022/06/04 10:13:42;;;;;;;1.85;1.75;;;;;;;-145.23;100.00;58621.06;5063385;28;20227;-52
2022/06/04 10:15:23;;;;;;;4.07;1.92;;;;;;;-145.23;100.00;58621.06;5057836;28;20239;-53
2022/06/04 10:18:03;;;;;;;2.90;1.88;;;;;;;-145.23;100.00;58621.06;5061127;28;20250;-53
2022/06/04 10:20:31;;;;;;;1.80;1.70;;;;;;;-145.23;100.00;58621.06;5063158;28;20306;-53
2022/06/04 10:22:58;;;;;;;2.05;1.88;;;;;;;-145.23;100.00;58621.06;5058960;28;20220;-54
2022/06/04 10:25:31;;;;;;;8.52;6.72;;;;;;;-145.23;100.00;58621.06;5073005;28;20251;-53
2022/06/04 10:28:11;;;;;;;9.95;7.68;;;;;;;-145.23;100.00;58621.06;5057800;28;20228;-52
2022/06/04 10:30:45;;;;;;;7.28;4.55;;;;;;;-145.23;100.00;58621.06;5058884;28;20793;-53
2022/06/04 10:33:15;;;;;;;3.42;2.72;;;;;;;-145.23;100.00;58621.06;5060011;28;20236;-53
2022/06/04 10:35:52;;;;;;;2.65;2.30;;;;;;;-145.23;100.00;58621.06;5052977;28;20250;-51
2022/06/04 10:38:26;;;;;;;2.63;1.60;;;;;;;-145.23;100.00;58621.06;5055242;28;20325;-52
2022/06/04 10:41:03;;;;;;;1.92;1.77;;;;;;;-145.23;100.00;58621.06;5061677;28;20313;-52
2022/06/04 10:43:47;;;;;;;1.98;1.88;;;;;;;-145.23;100.00;58621.06;5053179;28;20487;-51
2022/06/04 10:46:20;;;;;;;2.08;1.73;;;;;;;-145.23;100.00;58621.06;5057888;28;20588;-52
2022/06/04 10:48:59;;;;;;;2.90;1.95;;;;;;;-145.23;100.00;58621.06;5051283;28;20237;-51
2022/06/04 10:51:38;;;;;;;1.75;1.65;;;;;;;-145.23;100.00;58621.06;5055829;28;20226;-56
2022/06/04 10:54:10;;;;;;;2.05;1.70;;;;;;;-145.23;100.00;58621.06;5061650;28;20290;-52
2022/06/04 10:56:41;;;;;;;2.15;1.65;;;;;;;-145.23;100.00;58621.06;5049137;28;20669;-52
2022/06/04 10:59:13;;;;;;;1.90;1.80;;;;;;;-145.23;100.00;58621.06;5047188;28;20236;-52
2022/06/04 11:01:43;;;;;;;3.83;1.70;;;;;;;-145.23;100.00;58621.06;5059814;28;20297;-51
2022/06/04 11:04:20;;;;;;;3.40;1.80;;;;;;;-145.23;100.00;58621.06;5053143;28;20777;-52
2022/06/04 11:06:52;;;;;;;2.28;2.08;;;;;;;-145.23;100.00;58621.06;5049833;28;20223;-51
2022/06/04 11:09:22;;;;;;;2.97;1.95;;;;;;;-145.23;100.00;58621.06;5047233;28;20243;-52
2022/06/04 11:11:51;;;;;;;3.40;2.00;;;;;;;-145.23;100.00;58621.06;5061479;28;20365;-51
2022/06/04 11:14:25;;;;;;;3.63;1.63;;;;;;;-145.23;100.00;58621.06;5063148;28;20227;-53
2022/06/04 11:16:54;;;;;;;1.70;1.60;;;;;;;-145.23;100.00;58621.06;5065018;28;20231;-51
2022/06/04 11:19:27;;;;;;;2.15;1.95;;;;;;;-145.23;100.00;58621.06;5056269;28;20337;-52
2022/06/04 11:21:58;;;;;;;2.22;2.03;;;;;;;-145.23;100.00;58621.06;5050907;28;20274;-53
2022/06/04 11:24:30;;;;;;;2.40;2.20;;;;;;;-145.23;100.00;58621.06;5049185;28;20251;-52
2022/06/04 11:27:00;;;;;;;2.78;1.92;;;;;;;-145.23;100.00;58621.06;5058349;28;20225;-52
2022/06/04 11:29:26;;;;;;;2.05;1.90;;;;;;;-145.23;100.00;58621.06;5053890;28;20228;-53
2022/06/04 11:32:02;;;;;;;1.88;1.77;;;;;;;-145.23;100.00;58621.06;5054934;28;21053;-53
2022/06/04 11:34:56;;;;;;;2.50;1.45;;;;;;;-145.23;100.00;58621.06;5054634;28;20222;-53